Time;durP1;ratioP1;P1;durP2;ratioP2;P2;SDS_P1;SDS_P2;PMS_P1;PMS_P2;Temp;Humidity;BMP_temperature;BMP_pressure;BME280_temperature;BME280_humidity;BME280_pressure;Samples;Min_cycle;Max_cycle;Signal;HPM_P1;HPM_P2
2022/10/17 00:01:51;;;;;;;;;;;;;;;21.38;57.58;101754.41;5012850;28;2755;-49
2022/10/17 00:04:17;;;;;;;;;;;;;;;21.37;57.89;101752.91;5014837;28;2716;-46
2022/10/17 00:06:44;;;;;;;;;;;;;;;21.38;57.79;101748.66;5010195;28;3022;-47
2022/10/17 00:09:10;;;;;;;;;;;;;;;21.38;57.51;101737.88;5012472;28;2929;-48
2022/10/17 00:11:36;;;;;;;;;;;;;;;21.36;57.57;101740.63;5016646;28;2924;-47
2022/10/17 00:14:03;;;;;;;;;;;;;;;21.38;57.71;101748.66;5007219;28;2766;-47
2022/10/17 00:16:30;;;;;;;;;;;;;;;21.38;57.53;101754.41;5013673;28;2942;-46
2022/10/17 00:18:56;;;;;;;;;;;;;;;21.34;57.68;101749.16;5009612;28;2658;-46
2022/10/17 00:21:22;;;;;;;;;;;;;;;21.33;57.86;101748.41;5010691;28;2806;-48
2022/10/17 00:23:49;;;;;;;;;;;;;;;21.36;57.99;101748.53;5009378;28;2832;-47
2022/10/17 00:26:15;;;;;;;;;;;;;;;21.37;57.79;101736.34;5011892;28;2919;-48
2022/10/17 00:28:41;;;;;;;;;;;;;;;21.36;57.58;101734.13;5015310;28;1783;-47
2022/10/17 00:31:09;;;;;;;;;;;;;;;21.33;57.67;101745.53;5011740;28;2813;-46
2022/10/17 00:33:35;;;;;;;;;;;;;;;21.33;57.69;101736.91;5009186;28;2938;-48
2022/10/17 00:36:05;;;;;;;;;;;;;;;21.33;57.87;101742.66;5009743;28;2916;-51
2022/10/17 00:38:33;;;;;;;;;;;;;;;21.34;57.87;101740.53;5009786;28;2787;-48
2022/10/17 00:40:59;;;;;;;;;;;;;;;21.32;57.76;101743.28;5014231;28;2202;-45
2022/10/17 00:43:26;;;;;;;;;;;;;;;21.31;57.74;101733.91;5014257;28;2774;-48
2022/10/17 00:45:52;;;;;;;;;;;;;;;21.31;58.02;101748.31;5015711;28;2912;-46
2022/10/17 00:48:19;;;;;;;;;;;;;;;21.32;57.73;101751.91;5013405;28;2747;-49
2022/10/17 00:50:48;;;;;;;;;;;;;;;21.33;57.68;101754.19;5014218;28;1748;-47
2022/10/17 00:53:14;;;;;;;;;;;;;;;21.32;57.58;101749.03;5004848;28;2851;-51
2022/10/17 00:55:41;;;;;;;;;;;;;;;21.32;57.87;101752.66;5015286;28;1771;-49
2022/10/17 00:58:07;;;;;;;;;;;;;;;21.31;57.75;101733.91;5009322;28;2966;-49
2022/10/17 01:00:35;;;;;;;;;;;;;;;21.30;57.74;101732.41;5010363;28;2845;-47
2022/10/17 01:03:02;;;;;;;;;;;;;;;21.32;57.68;101741.16;5017835;28;2819;-47
2022/10/17 01:05:29;;;;;;;;;;;;;;;21.30;57.80;101738.16;5010909;28;3216;-46
2022/10/17 01:07:55;;;;;;;;;;;;;;;21.31;57.97;101733.91;5042683;28;2830;-48
2022/10/17 01:10:21;;;;;;;;;;;;;;;21.29;58.05;101739.53;5008999;28;2839;-49
2022/10/17 01:13:03;;;;;;;;;;;;;;;21.32;57.59;101735.38;5008147;28;2933;-47
2022/10/17 01:15:35;;;;;;;;;;;;;;;21.32;57.91;101737.53;5009888;28;2770;-50
2022/10/17 01:18:21;;;;;;;;;;;;;;;21.30;57.96;101728.75;5010992;28;3766;-50
2022/10/17 01:20:47;;;;;;;;;;;;;;;21.29;57.66;101730.91;5007219;28;2966;-48
2022/10/17 01:23:13;;;;;;;;;;;;;;;21.29;58.00;101728.03;5013979;28;2847;-46
2022/10/17 01:25:52;;;;;;;;;;;;;;;21.30;57.71;101720.13;5016670;28;2620;-47
2022/10/17 01:28:27;;;;;;;;;;;;;;;21.32;58.01;101723.13;5020918;28;2930;-47
2022/10/17 01:30:55;;;;;;;;;;;;;;;21.29;57.96;101716.50;5025690;28;2904;-50
2022/10/17 01:33:42;;;;;;;;;;;;;;;21.28;57.96;101720.78;4998852;28;3211;-46
2022/10/17 01:36:18;;;;;;;;;;;;;;;21.29;57.92;101719.38;5013217;28;2965;-47
2022/10/17 01:38:48;;;;;;;;;;;;;;;21.30;57.76;101718.00;5013741;28;2876;-46
2022/10/17 01:41:21;;;;;;;;;;;;;;;21.30;57.96;101712.25;5012326;28;2986;-48
2022/10/17 01:43:53;;;;;;;;;;;;;;;21.30;57.86;101709.38;5017181;28;2887;-46
2022/10/17 01:46:27;;;;;;;;;;;;;;;21.27;57.76;101710.63;5029721;28;2770;-48
2022/10/17 01:48:53;;;;;;;;;;;;;;;21.29;57.86;101707.84;5014476;28;2877;-50
2022/10/17 01:51:21;;;;;;;;;;;;;;;21.28;57.79;101705.59;5029327;28;2896;-47
2022/10/17 01:53:52;;;;;;;;;;;;;;;21.27;57.67;101710.63;5019150;28;2797;-50
2022/10/17 01:56:18;;;;;;;;;;;;;;;21.28;57.80;101706.38;5007796;28;2574;-47
2022/10/17 01:58:47;;;;;;;;;;;;;;;21.27;57.70;101696.22;5005319;28;3040;-46
2022/10/17 02:01:13;;;;;;;;;;;;;;;21.26;57.69;101703.38;4997296;28;2870;-47
2022/10/17 02:03:40;;;;;;;;;;;;;;;21.27;57.50;101710.63;4995337;28;2977;-50
2022/10/17 02:06:06;;;;;;;;;;;;;;;21.27;58.01;101704.13;5010900;28;2849;-46
2022/10/17 02:08:40;;;;;;;;;;;;;;;21.28;57.82;101712.13;5021503;28;2563;-46
2022/10/17 02:11:12;;;;;;;;;;;;;;;21.27;57.63;101710.63;5012091;28;2795;-46
2022/10/17 02:13:44;;;;;;;;;;;;;;;21.26;57.62;101712.00;5010918;28;2830;-46
2022/10/17 02:16:12;;;;;;;;;;;;;;;21.26;57.71;101702.63;5014850;28;2780;-48
2022/10/17 02:18:58;;;;;;;;;;;;;;;21.26;57.68;101700.50;5014254;28;3393;-47
2022/10/17 02:21:28;;;;;;;;;;;;;;;21.25;57.77;101704.75;5009107;28;3030;-51
2022/10/17 02:24:15;;;;;;;;;;;;;;;21.24;57.76;101694.59;5007272;28;2630;-49
2022/10/17 02:26:43;;;;;;;;;;;;;;;21.26;57.95;101709.13;5017339;28;2257;-47
2022/10/17 02:29:14;;;;;;;;;;;;;;;21.25;57.70;101698.97;5016362;28;2739;-49
2022/10/17 02:31:48;;;;;;;;;;;;;;;21.25;57.69;101693.22;5014043;28;2578;-46
2022/10/17 02:34:19;;;;;;;;;;;;;;;21.26;57.89;101702.63;5009329;28;2761;-46
2022/10/17 02:36:49;;;;;;;;;;;;;;;21.23;57.90;101695.97;5011062;28;2883;-47
2022/10/17 02:39:15;;;;;;;;;;;;;;;21.23;57.81;101698.13;5011617;28;2930;-49
2022/10/17 02:41:42;;;;;;;;;;;;;;;21.22;57.96;101691.63;5021092;28;2709;-48
2022/10/17 02:44:10;;;;;;;;;;;;;;;21.26;57.84;101680.31;5012190;28;3535;-49
2022/10/17 02:46:36;;;;;;;;;;;;;;;21.29;57.84;101681.91;5013979;28;2891;-46
2022/10/17 02:49:06;;;;;;;;;;;;;;;21.30;57.57;101674.78;5012293;28;2853;-46
2022/10/17 02:51:39;;;;;;;;;;;;;;;21.31;57.71;101682.03;5012259;28;2878;-47
2022/10/17 02:54:08;;;;;;;;;;;;;;;21.32;57.38;101683.53;5012541;28;2846;-48
2022/10/17 02:56:40;;;;;;;;;;;;;;;21.33;57.52;101682.16;5004922;28;2628;-47
2022/10/17 02:59:06;;;;;;;;;;;;;;;21.34;57.55;101686.53;5014511;28;2955;-47
2022/10/17 03:01:33;;;;;;;;;;;;;;;21.37;57.81;101695.28;4997196;28;2565;-47
2022/10/17 03:04:03;;;;;;;;;;;;;;;21.36;57.89;101697.41;5025888;28;2977;-47
2022/10/17 03:06:29;;;;;;;;;;;;;;;21.38;57.76;101694.66;5003709;28;2950;-49
2022/10/17 03:08:56;;;;;;;;;;;;;;;21.36;58.24;101696.69;5004885;28;2789;-47
2022/10/17 03:11:22;;;;;;;;;;;;;;;21.37;58.07;101698.16;5011819;28;2774;-47
2022/10/17 03:13:49;;;;;;;;;;;;;;;21.37;57.95;101686.63;5020343;28;3200;-47
2022/10/17 03:16:16;;;;;;;;;;;;;;;21.36;58.09;101676.50;5005504;28;2944;-47
2022/10/17 03:18:43;;;;;;;;;;;;;;;21.37;58.05;101672.22;5017471;28;2981;-49
2022/10/17 03:21:14;;;;;;;;;;;;;;;21.36;58.15;101677.25;5007799;28;2927;-49
2022/10/17 03:23:40;;;;;;;;;;;;;;;21.34;58.29;101674.25;5010244;28;2642;-50
2022/10/17 03:26:07;;;;;;;;;;;;;;;21.36;58.10;101682.28;5022112;28;2966;-47
2022/10/17 03:28:34;;;;;;;;;;;;;;;21.38;57.90;101691.03;5023273;28;3146;-48
2022/10/17 03:31:07;;;;;;;;;;;;;;;21.37;58.18;101678.00;5013089;28;1747;-46
2022/10/17 03:33:35;;;;;;;;;;;;;;;21.38;57.85;101685.28;5011201;28;3037;-48
2022/10/17 03:36:08;;;;;;;;;;;;;;;21.37;57.90;101675.09;5011951;28;2881;-48
2022/10/17 03:38:35;;;;;;;;;;;;;;;21.37;57.98;101678.00;5013841;28;2596;-47
2022/10/17 03:41:02;;;;;;;;;;;;;;;21.34;57.98;101669.22;5013800;28;2530;-48
2022/10/17 03:43:29;;;;;;;;;;;;;;;21.36;57.82;101674.38;5013042;28;1707;-47
2022/10/17 03:45:57;;;;;;;;;;;;;;;21.37;58.08;101669.34;5016972;28;3094;-46
2022/10/17 03:48:24;;;;;;;;;;;;;;;21.36;57.90;101677.25;5009570;28;2940;-47
2022/10/17 03:50:51;;;;;;;;;;;;;;;21.36;57.81;101673.63;5011117;28;2895;-46
2022/10/17 03:53:17;;;;;;;;;;;;;;;21.34;57.90;101669.22;5013546;28;2867;-48
2022/10/17 03:55:44;;;;;;;;;;;;;;;21.34;58.03;101674.25;5019295;28;2949;-48
2022/10/17 03:58:10;;;;;;;;;;;;;;;21.37;58.19;101666.47;5016935;28;2911;-49
2022/10/17 04:00:36;;;;;;;;;;;;;;;21.37;57.95;101672.97;5015865;28;2766;-45
2022/10/17 04:03:03;;;;;;;;;;;;;;;21.36;58.06;101665.72;5022589;28;2364;-47
2022/10/17 04:05:30;;;;;;;;;;;;;;;21.37;57.85;101666.47;5016385;28;2981;-47
2022/10/17 04:07:56;;;;;;;;;;;;;;;21.37;58.00;101669.34;5004346;28;2964;-48
2022/10/17 04:10:47;;;;;;;;;;;;;;;21.34;57.97;101665.63;5008557;28;2859;-47
2022/10/17 04:13:14;;;;;;;;;;;;;;;21.34;57.78;101668.50;5013999;28;2865;-47
2022/10/17 04:15:40;;;;;;;;;;;;;;;21.36;58.04;101667.88;5010904;28;2739;-47
2022/10/17 04:18:06;;;;;;;;;;;;;;;21.36;58.02;101656.34;5009817;28;2973;-48
2022/10/17 04:20:36;;;;;;;;;;;;;;;21.36;58.15;101664.97;5009816;28;2950;-47
2022/10/17 04:23:02;;;;;;;;;;;;;;;21.34;58.07;101656.97;5007141;28;3549;-48
2022/10/17 04:25:29;;;;;;;;;;;;;;;21.34;57.82;101656.97;5021585;28;2814;-47
2022/10/17 04:28:01;;;;;;;;;;;;;;;21.33;58.17;101650.47;5008799;28;2715;-49
2022/10/17 04:30:27;;;;;;;;;;;;;;;21.34;58.00;101657.72;5006211;28;2961;-47
2022/10/17 04:32:54;;;;;;;;;;;;;;;21.33;58.17;101644.69;5015734;28;2881;-49
2022/10/17 04:35:21;;;;;;;;;;;;;;;21.33;58.25;101653.34;5020346;28;3041;-50
2022/10/17 04:37:53;;;;;;;;;;;;;;;21.33;57.78;101656.22;5006699;28;2883;-48
2022/10/17 04:40:19;;;;;;;;;;;;;;;21.32;58.14;101654.72;5024493;28;3003;-50
2022/10/17 04:42:46;;;;;;;;;;;;;;;21.32;58.11;101672.00;5005068;28;2895;-47
2022/10/17 04:45:17;;;;;;;;;;;;;;;21.30;58.17;101663.28;5011053;28;2695;-46
2022/10/17 04:47:45;;;;;;;;;;;;;;;21.30;57.81;101657.50;5020070;28;2815;-49
2022/10/17 04:50:11;;;;;;;;;;;;;;;21.31;58.08;101656.09;5010383;28;2998;-47
2022/10/17 04:52:39;;;;;;;;;;;;;;;21.31;57.81;101659.00;5009709;28;2838;-49
2022/10/17 04:55:07;;;;;;;;;;;;;;;21.30;58.19;101648.88;5019404;28;2961;-46
2022/10/17 04:57:34;;;;;;;;;;;;;;;21.30;57.75;101653.84;5010759;28;2519;-49
2022/10/17 05:00:11;;;;;;;;;;;;;;;21.30;57.89;101656.75;5014005;28;1973;-48
2022/10/17 05:02:50;;;;;;;;;;;;;;;21.28;58.03;101660.28;5014294;28;3180;-50
2022/10/17 05:05:16;;;;;;;;;;;;;;;21.27;58.20;101652.25;5009170;28;3084;-47
2022/10/17 05:07:45;;;;;;;;;;;;;;;21.27;58.09;101653.00;5040236;28;3052;-52
2022/10/17 05:10:16;;;;;;;;;;;;;;;21.26;57.88;101645.75;5041428;28;3040;-60
2022/10/17 05:12:45;;;;;;;;;;;;;;;21.24;58.27;101654.28;5018123;28;3193;-59
2022/10/17 05:15:12;;;;;;;;;;;;;;;21.25;58.24;101655.75;5011775;28;3034;-59
2022/10/17 05:17:39;;;;;;;;;;;;;;;21.18;58.35;101651.06;5010995;28;2939;-63
2022/10/17 05:20:06;;;;;;;;;;;;;;;21.23;58.32;101649.88;5023790;28;2850;-60
2022/10/17 05:22:34;;;;;;;;;;;;;;;21.27;58.36;101655.88;5029755;28;2915;-60
2022/10/17 05:25:06;;;;;;;;;;;;;;;21.29;58.24;101656.00;5010845;28;2892;-63
2022/10/17 05:27:32;;;;;;;;;;;;;;;21.25;58.25;101652.88;5012178;28;2759;-63
2022/10/17 05:30:00;;;;;;;;;;;;;;;21.24;58.17;101654.28;5020928;28;2780;-61
2022/10/17 05:32:28;;;;;;;;;;;;;;;21.28;58.13;101660.28;5039184;28;2998;-66
2022/10/17 05:34:55;;;;;;;;;;;;;;;21.21;58.28;101660.56;5006804;28;2958;-66
2022/10/17 05:37:23;;;;;;;;;;;;;;;21.16;57.97;101665.34;5026163;28;3001;-64
2022/10/17 05:39:53;;;;;;;;;;;;;;;21.06;58.21;101662.66;5044499;28;2949;-64
2022/10/17 05:42:19;;;;;;;;;;;;;;;21.17;57.70;101661.09;5017790;28;3423;-64
2022/10/17 05:44:46;;;;;;;;;;;;;;;20.95;58.08;101666.34;5009294;28;2770;-64
2022/10/17 05:47:14;;;;;;;;;;;;;;;20.87;58.27;101663.75;5026812;28;2838;-64
2022/10/17 05:49:42;;;;;;;;;;;;;;;20.94;58.28;101664.84;5015670;28;3010;-65
2022/10/17 05:52:17;;;;;;;;;;;;;;;21.00;57.93;101659.41;5028761;28;2947;-64
2022/10/17 05:54:57;;;;;;;;;;;;;;;21.04;57.85;101679.06;5010841;28;3009;-60
2022/10/17 05:57:24;;;;;;;;;;;;;;;21.03;58.27;101683.34;5021093;28;3240;-62
2022/10/17 05:59:50;;;;;;;;;;;;;;;20.93;58.58;101686.38;5008701;28;2946;-63
2022/10/17 06:02:18;;;;;;;;;;;;;;;20.71;58.74;101688.72;5027653;28;2832;-63
2022/10/17 06:04:47;;;;;;;;;;;;;;;20.76;58.54;101686.84;5016472;28;3160;-63
2022/10/17 06:07:14;;;;;;;;;;;;;;;20.89;58.14;101694.75;5010902;28;2879;-63
2022/10/17 06:09:42;;;;;;;;;;;;;;;20.95;58.10;101692.25;5027150;28;2874;-63
2022/10/17 06:12:09;;;;;;;;;;;;;;;20.99;57.85;101697.50;5024444;28;3095;-63
2022/10/17 06:14:35;;;;;;;;;;;;;;;20.98;57.89;101704.63;5008243;28;3138;-63
2022/10/17 06:17:04;;;;;;;;;;;;;;;20.96;57.88;101696.63;5016044;28;2943;-63
2022/10/17 06:19:30;;;;;;;;;;;;;;;20.98;57.84;101704.63;5026802;28;3024;-63
2022/10/17 06:21:57;;;;;;;;;;;;;;;21.01;57.98;101709.13;5014550;28;2854;-63
2022/10/17 06:24:25;;;;;;;;;;;;;;;21.01;57.78;101718.53;5011789;28;1760;-63
2022/10/17 06:26:52;;;;;;;;;;;;;;;21.00;57.91;101719.88;5024389;28;3365;-55
2022/10/17 06:29:19;;;;;;;;;;;;;;;21.09;58.18;101718.97;5018426;28;3548;-63
2022/10/17 06:31:49;;;;;;;;;;;;;;;21.46;61.49;101720.31;5024191;28;3786;-68
2022/10/17 06:34:15;;;;;;;;;;;;;;;21.47;59.36;101721.81;5018736;28;4071;-69
2022/10/17 06:36:43;;;;;;;;;;;;;;;21.53;59.95;101720.03;5014562;28;3847;-56
2022/10/17 06:39:10;;;;;;;;;;;;;;;21.53;58.67;101720.03;5016950;28;2850;-56
2022/10/17 06:42:01;;;;;;;;;;;;;;;21.66;58.85;101715.66;5023864;28;3112;-60
2022/10/17 06:44:46;;;;;;;;;;;;;;;21.72;57.75;101718.88;5002229;28;4783;-58
2022/10/17 06:47:32;;;;;;;;;;;;;;;21.72;57.83;101718.88;5024654;28;3928;-58
2022/10/17 06:50:04;;;;;;;;;;;;;;;21.68;57.67;101721.53;5018263;28;2882;-54
2022/10/17 06:52:52;;;;;;;;;;;;;;;21.69;57.74;101720.16;5013238;28;3157;-55
2022/10/17 06:55:44;;;;;;;;;;;;;;;21.47;57.58;101721.81;5018173;28;4195;-68
2022/10/17 06:58:22;;;;;;;;;;;;;;;21.39;57.98;101716.31;5019822;28;3004;-69
2022/10/17 07:01:10;;;;;;;;;;;;;;;21.70;58.80;101718.03;5012247;28;3176;-66
2022/10/17 07:03:37;;;;;;;;;;;;;;;22.30;57.04;101721.94;5032963;28;3206;-66
2022/10/17 07:06:03;;;;;;;;;;;;;;;22.50;56.08;101733.78;5012570;28;4707;-67
2022/10/17 07:08:30;;;;;;;;;;;;;;;22.64;55.96;101733.75;5016055;28;3741;-68
2022/10/17 07:11:07;;;;;;;;;;;;;;;22.80;55.85;101737.47;5015763;28;1560;-67
2022/10/17 07:13:33;;;;;;;;;;;;;;;22.84;55.65;101736.91;5014182;28;2982;-66
2022/10/17 07:16:05;;;;;;;;;;;;;;;22.88;55.19;101743.63;5016440;28;1627;-65
2022/10/17 07:18:32;;;;;;;;;;;;;;;23.17;54.53;101745.09;5026955;28;4616;-60
2022/10/17 07:20:59;;;;;;;;;;;;;;;23.24;54.40;101749.75;5017272;28;3147;-71
2022/10/17 07:23:26;;;;;;;;;;;;;;;23.34;54.50;101750.25;5019738;28;1925;-62
2022/10/17 07:25:52;;;;;;;;;;;;;;;23.37;54.46;101754.75;5006403;28;4698;-64
2022/10/17 07:28:18;;;;;;;;;;;;;;;23.13;54.38;101739.84;5011578;28;2893;-62
2022/10/17 07:30:46;;;;;;;;;;;;;;;23.02;54.59;101746.53;5016202;28;1577;-61
2022/10/17 07:33:18;;;;;;;;;;;;;;;23.05;54.76;101750.28;5013909;28;3072;-62
2022/10/17 07:35:45;;;;;;;;;;;;;;;22.94;54.66;101749.72;5009259;28;2936;-64
2022/10/17 07:38:11;;;;;;;;;;;;;;;23.00;54.88;101755.09;5027446;28;3024;-65
2022/10/17 07:40:37;;;;;;;;;;;;;;;23.02;54.58;101751.53;5020892;28;3752;-63
2022/10/17 07:43:04;;;;;;;;;;;;;;;22.70;55.40;101752.16;5023155;28;3619;-64
2022/10/17 07:45:30;;;;;;;;;;;;;;;22.63;56.32;101740.91;5019138;28;5607;-64
2022/10/17 07:47:57;;;;;;;;;;;;;;;22.85;55.85;101749.97;5023643;28;5012;-62
2022/10/17 07:50:23;;;;;;;;;;;;;;;22.91;55.25;101741.63;5014018;28;3052;-61
2022/10/17 07:52:50;;;;;;;;;;;;;;;22.92;55.27;101749.63;5012137;28;3013;-64
2022/10/17 07:55:16;;;;;;;;;;;;;;;22.93;54.90;101750.38;5013374;28;2722;-64
2022/10/17 07:57:42;;;;;;;;;;;;;;;22.90;55.26;101751.66;5013679;28;1645;-62
2022/10/17 08:00:09;;;;;;;;;;;;;;;22.96;54.99;101744.06;5011533;28;2902;-61
2022/10/17 08:02:39;;;;;;;;;;;;;;;22.94;54.99;101746.84;5013247;28;3038;-63
2022/10/17 08:05:06;;;;;;;;;;;;;;;22.64;56.36;101753.97;5010724;28;3143;-63
2022/10/17 08:07:32;;;;;;;;;;;;;;;22.68;56.02;101749.16;5013710;28;2968;-63
2022/10/17 08:09:59;;;;;;;;;;;;;;;22.85;55.64;101756.50;5011806;28;3188;-65
2022/10/17 08:12:25;;;;;;;;;;;;;;;22.90;55.33;101751.66;5012852;28;2682;-65
2022/10/17 08:14:52;;;;;;;;;;;;;;;22.92;55.54;101757.53;5011580;28;5364;-66
2022/10/17 08:17:18;;;;;;;;;;;;;;;22.92;55.37;101755.41;5012924;28;3033;-65
2022/10/17 08:19:45;;;;;;;;;;;;;;;22.93;55.29;101744.59;5010802;28;2964;-66
2022/10/17 08:22:11;;;;;;;;;;;;;;;22.97;55.27;101748.44;5015744;28;5080;-63
2022/10/17 08:24:38;;;;;;;;;;;;;;;22.90;55.18;101745.88;5013084;28;5058;-67
2022/10/17 08:27:10;;;;;;;;;;;;;;;22.88;55.22;101737.88;5013308;28;3444;-66
2022/10/17 08:29:36;;;;;;;;;;;;;;;22.82;55.82;101742.59;5012771;28;3574;-72
2022/10/17 08:32:03;;;;;;;;;;;;;;;22.84;55.28;101749.22;5014096;28;4381;-76
2022/10/17 08:34:34;;;;;;;;;;;;;;;22.75;55.73;101750.22;5014596;28;2728;-71
2022/10/17 08:37:00;;;;;;;;;;;;;;;22.79;55.42;101747.50;5008284;28;3253;-72
2022/10/17 08:39:27;;;;;;;;;;;;;;;22.83;55.72;101756.38;5016125;28;2951;-74
2022/10/17 08:41:57;;;;;;;;;;;;;;;22.88;55.73;101742.91;5013059;28;3023;-69
2022/10/17 08:44:36;;;;;;;;;;;;;;;22.88;55.73;101751.56;5014396;28;3101;-73
2022/10/17 08:47:02;;;;;;;;;;;;;;;22.89;55.25;101745.16;5017224;28;2818;-73
2022/10/17 08:49:36;;;;;;;;;;;;;;;22.91;55.57;101742.38;5032609;28;3073;-73
2022/10/17 08:52:04;;;;;;;;;;;;;;;22.86;55.46;101739.91;5016320;28;3022;-74
2022/10/17 08:54:37;;;;;;;;;;;;;;;22.87;55.66;101750.06;5027498;28;3075;-73
2022/10/17 08:57:04;;;;;;;;;;;;;;;22.85;55.68;101747.81;5048634;28;2916;-75
2022/10/17 08:59:30;;;;;;;;;;;;;;;22.81;55.74;101741.84;5016795;28;1725;-70
2022/10/17 09:02:01;;;;;;;;;;;;;;;22.77;55.87;101753.22;5015155;28;6104;-69
2022/10/17 09:04:34;;;;;;;;;;;;;;;22.74;56.09;101752.34;5013561;28;2954;-72
2022/10/17 09:07:09;;;;;;;;;;;;;;;22.98;55.66;101752.81;5003227;28;3137;-75
2022/10/17 09:09:40;;;;;;;;;;;;;;;22.94;55.70;101752.63;5046610;28;4638;-78
2022/10/17 09:12:30;;;;;;;;;;;;;;;22.89;55.72;101762.47;5020862;28;3110;-76
2022/10/17 09:15:15;;;;;;;;;;;;;;;22.91;55.57;101765.47;4988925;28;4421;-79
2022/10/17 09:17:54;;;;;;;;;;;;;;;22.87;55.75;101756.59;5015583;28;3042;-80
2022/10/17 09:20:27;;;;;;;;;;;;;;;22.97;55.53;101751.31;5008358;28;4381;-80
2022/10/17 09:22:58;;;;;;;;;;;;;;;22.95;55.48;101748.34;5020682;28;3147;-75
2022/10/17 09:25:25;;;;;;;;;;;;;;;22.96;55.35;101746.19;5032560;28;3210;-72
2022/10/17 09:27:52;;;;;;;;;;;;;;;22.95;55.71;101745.47;5018636;28;2579;-76
2022/10/17 09:30:31;;;;;;;;;;;;;;;22.97;55.70;101739.75;5019277;28;2876;-77
2022/10/17 09:33:10;;;;;;;;;;;;;;;22.96;55.42;101738.28;5001967;28;4834;-75
2022/10/17 09:35:57;;;;;;;;;;;;;;;22.98;55.38;101738.38;5012470;28;3121;-75
2022/10/17 09:38:25;;;;;;;;;;;;;;;23.06;55.50;101734.41;5015225;28;2939;-71
2022/10/17 09:40:55;;;;;;;;;;;;;;;23.03;55.18;101735.72;5023346;28;2545;-74
2022/10/17 09:43:25;;;;;;;;;;;;;;;22.96;55.58;101735.38;5017778;28;3006;-74
2022/10/17 09:45:57;;;;;;;;;;;;;;;23.02;55.48;101728.44;5018172;28;3344;-69
2022/10/17 09:48:25;;;;;;;;;;;;;;;23.02;55.58;101731.31;5033097;28;2855;-72
2022/10/17 09:50:51;;;;;;;;;;;;;;;22.98;55.65;101729.72;5018976;28;2638;-73
2022/10/17 09:53:38;;;;;;;;;;;;;;;23.07;55.36;101730.16;5016707;28;3598;-73
2022/10/17 09:56:10;;;;;;;;;;;;;;;23.07;55.52;101735.94;5018962;28;3017;-75
2022/10/17 09:58:46;;;;;;;;;;;;;;;23.12;55.56;101737.63;5024988;28;3626;-75
2022/10/17 10:01:14;;;;;;;;;;;;;;;23.12;55.44;101737.63;5018847;28;3053;-78
2022/10/17 10:03:46;;;;;;;;;;;;;;;23.09;55.33;101744.66;5019586;28;3100;-81
2022/10/17 10:06:15;;;;;;;;;;;;;;;23.06;55.60;101732.28;5014190;28;3106;-73
2022/10/17 10:08:54;;;;;;;;;;;;;;;23.08;55.54;101738.16;5018017;28;3090;-74
2022/10/17 10:11:39;;;;;;;;;;;;;;;23.13;55.50;101727.53;5017028;28;3019;-74
2022/10/17 10:14:09;;;;;;;;;;;;;;;23.11;55.17;101730.34;5016466;28;2967;-78
2022/10/17 10:16:40;;;;;;;;;;;;;;;23.10;55.54;101728.84;5020977;28;3548;-76
2022/10/17 10:19:12;;;;;;;;;;;;;;;23.11;55.69;101739.00;5016819;28;3012;-77
2022/10/17 10:21:38;;;;;;;;;;;;;;;23.04;55.82;101737.22;5030253;28;3167;-77
2022/10/17 10:24:08;;;;;;;;;;;;;;;23.02;55.98;101734.22;5049331;28;3164;-78
2022/10/17 10:26:38;;;;;;;;;;;;;;;23.07;55.69;101730.91;5018133;28;2946;-77
2022/10/17 10:29:24;;;;;;;;;;;;;;;23.10;55.67;101738.25;5032422;28;3038;-73
2022/10/17 10:31:51;;;;;;;;;;;;;;;23.15;55.53;101734.16;5012041;28;3101;-76
2022/10/17 10:34:20;;;;;;;;;;;;;;;23.14;55.49;101731.94;5013941;28;3126;-71
2022/10/17 10:36:48;;;;;;;;;;;;;;;23.14;55.60;101731.94;5011560;28;3364;-73
2022/10/17 10:39:35;;;;;;;;;;;;;;;23.11;55.68;101727.44;5018484;28;2860;-72
2022/10/17 10:42:02;;;;;;;;;;;;;;;23.12;55.81;101726.06;5007199;28;3073;-76
2022/10/17 10:44:29;;;;;;;;;;;;;;;23.17;55.44;101716.19;5015298;28;2903;-75
2022/10/17 10:47:15;;;;;;;;;;;;;;;23.13;55.59;101713.09;5016194;28;2907;-75
2022/10/17 10:49:41;;;;;;;;;;;;;;;23.13;55.76;101702.28;5029347;28;2910;-73
2022/10/17 10:52:09;;;;;;;;;;;;;;;22.85;55.84;101704.50;5009979;28;5304;-64
2022/10/17 10:54:39;;;;;;;;;;;;;;;22.52;56.98;101711.53;5027165;28;3006;-65
2022/10/17 10:57:06;;;;;;;;;;;;;;;22.55;56.87;101712.41;5040960;28;3097;-65
2022/10/17 10:59:51;;;;;;;;;;;;;;;22.75;56.89;101706.91;5026917;28;2957;-69
2022/10/17 11:02:23;;;;;;;;;;;;;;;22.78;56.59;101711.38;5022107;28;3052;-67
2022/10/17 11:04:51;;;;;;;;;;;;;;;22.56;57.19;101705.97;5016626;28;3184;-64
2022/10/17 11:07:21;;;;;;;;;;;;;;;22.48;57.12;101705.56;5009335;28;3012;-64
2022/10/17 11:10:06;;;;;;;;;;;;;;;22.73;57.78;101703.91;5013302;28;4951;-65
2022/10/17 11:12:34;;;;;;;;;;;;;;;22.74;57.21;101699.63;5011956;28;3218;-68
2022/10/17 11:15:08;;;;;;;;;;;;;;;22.61;57.32;101711.94;5045118;28;2934;-70
2022/10/17 11:17:36;;;;;;;;;;;;;;;22.53;57.49;101707.25;5022613;28;2912;-70
2022/10/17 11:20:07;;;;;;;;;;;;;;;22.45;57.73;101706.09;5011856;28;2993;-71
2022/10/17 11:22:38;;;;;;;;;;;;;;;22.41;57.55;101703.75;5028486;28;3352;-70
2022/10/17 11:25:12;;;;;;;;;;;;;;;22.35;57.69;101701.28;5045166;28;3078;-71
2022/10/17 11:27:38;;;;;;;;;;;;;;;22.30;57.94;101704.63;5042915;28;3190;-71
2022/10/17 11:30:05;;;;;;;;;;;;;;;22.35;57.99;101703.44;5013410;28;3123;-73
2022/10/17 11:32:36;;;;;;;;;;;;;;;22.29;57.92;101706.78;5010247;28;5174;-73
2022/10/17 11:35:21;;;;;;;;;;;;;;;22.22;58.19;101702.06;5011991;28;3056;-72
2022/10/17 11:37:49;;;;;;;;;;;;;;;22.25;58.12;101700.03;5012905;28;2958;-73
2022/10/17 11:40:26;;;;;;;;;;;;;;;22.22;58.12;101704.97;5014053;28;2939;-73
2022/10/17 11:43:00;;;;;;;;;;;;;;;22.23;58.36;101712.22;5013030;28;2910;-73
2022/10/17 11:45:34;;;;;;;;;;;;;;;22.26;58.26;101710.19;5047439;28;1564;-74
2022/10/17 11:48:11;;;;;;;;;;;;;;;22.27;58.00;101706.66;5028763;28;2985;-73
2022/10/17 11:50:41;;;;;;;;;;;;;;;22.28;58.08;101702.38;5041033;28;2913;-73
2022/10/17 11:53:28;;;;;;;;;;;;;;;22.26;58.10;101699.38;5027276;28;2991;-71
2022/10/17 11:55:56;;;;;;;;;;;;;;;22.28;57.99;101696.59;5016025;28;1562;-72
2022/10/17 11:58:32;;;;;;;;;;;;;;;22.29;58.09;101694.47;5017711;28;3234;-73
2022/10/17 12:01:06;;;;;;;;;;;;;;;22.24;58.47;101701.41;5029501;28;3026;-73
2022/10/17 12:03:56;;;;;;;;;;;;;;;22.27;58.37;101688.59;5028028;28;1907;-70
2022/10/17 12:06:29;;;;;;;;;;;;;;;22.25;58.16;101686.34;5042782;28;3141;-73
2022/10/17 12:08:57;;;;;;;;;;;;;;;22.28;58.13;101684.31;5019083;28;2772;-72
2022/10/17 12:11:38;;;;;;;;;;;;;;;22.31;58.11;101688.78;5029530;28;1626;-70
2022/10/17 12:14:23;;;;;;;;;;;;;;;22.31;58.17;101683.78;5010408;28;2997;-73
2022/10/17 12:16:50;;;;;;;;;;;;;;;22.35;58.07;101677.47;5011133;28;3135;-71
2022/10/17 12:19:20;;;;;;;;;;;;;;;22.36;58.12;101684.75;5012094;28;3041;-72
2022/10/17 12:21:56;;;;;;;;;;;;;;;22.38;58.04;101681.97;5025735;28;3241;-72
2022/10/17 12:24:39;;;;;;;;;;;;;;;22.39;57.94;101683.44;5011618;28;2816;-73
2022/10/17 12:27:24;;;;;;;;;;;;;;;22.40;58.04;101667.63;5026029;28;3011;-72
2022/10/17 12:29:56;;;;;;;;;;;;;;;22.39;58.09;101660.38;5005595;28;2896;-72
2022/10/17 12:32:23;;;;;;;;;;;;;;;22.41;57.95;101662.63;5010151;28;3096;-72
2022/10/17 12:34:50;;;;;;;;;;;;;;;22.41;58.23;101660.47;5009675;28;3100;-72
2022/10/17 12:37:34;;;;;;;;;;;;;;;22.43;57.94;101660.56;5009616;28;3112;-72
2022/10/17 12:40:00;;;;;;;;;;;;;;;22.42;57.99;101676.38;5018306;28;2901;-72
2022/10/17 12:42:30;;;;;;;;;;;;;;;22.43;58.13;101677.88;5008476;28;3136;-74
2022/10/17 12:44:57;;;;;;;;;;;;;;;22.43;57.84;101672.13;5005697;28;2992;-69
2022/10/17 12:47:27;;;;;;;;;;;;;;;22.50;58.08;101671.03;5010308;28;3194;-80
2022/10/17 12:49:53;;;;;;;;;;;;;;;22.54;58.35;101665.47;5007547;28;3014;-69
2022/10/17 12:52:24;;;;;;;;;;;;;;;22.85;57.41;101666.97;5012657;28;4796;-69
2022/10/17 12:54:59;;;;;;;;;;;;;;;22.95;57.58;101666.69;5037597;28;5130;-76
2022/10/17 12:57:37;;;;;;;;;;;;;;;23.02;57.16;101664.88;5011307;28;3201;-73
2022/10/17 13:00:12;;;;;;;;;;;;;;;23.09;57.04;101663.78;5010471;28;2833;-68
2022/10/17 13:02:38;;;;;;;;;;;;;;;23.14;56.63;101656.81;5008752;28;3089;-69
2022/10/17 13:05:06;;;;;;;;;;;;;;;23.23;56.74;101655.81;5019988;28;3322;-69